sensor_id;sensor_type;location;lat;lon;timestamp;P1;durP1;ratioP1;P2;durP2;ratioP2
20348;SDS011;10332;50.208;18.988;2024-01-30T00:02:24;56.50;;;26.75;;
20348;SDS011;10332;50.208;18.988;2024-01-30T00:04:52;56.42;;;25.85;;
20348;SDS011;10332;50.208;18.988;2024-01-30T00:07:20;54.60;;;26.48;;
20348;SDS011;10332;50.208;18.988;2024-01-30T00:09:47;48.53;;;24.85;;
20348;SDS011;10332;50.208;18.988;2024-01-30T00:12:15;51.92;;;25.20;;
20348;SDS011;10332;50.208;18.988;2024-01-30T00:14:43;53.15;;;26.02;;
20348;SDS011;10332;50.208;18.988;2024-01-30T00:17:11;55.55;;;27.15;;
20348;SDS011;10332;50.208;18.988;2024-01-30T00:19:38;58.97;;;27.65;;
20348;SDS011;10332;50.208;18.988;2024-01-30T00:22:07;53.90;;;27.70;;
20348;SDS011;10332;50.208;18.988;2024-01-30T00:24:34;57.33;;;27.08;;
20348;SDS011;10332;50.208;18.988;2024-01-30T00:27:02;58.05;;;29.55;;
20348;SDS011;10332;50.208;18.988;2024-01-30T00:29:30;57.30;;;30.73;;
20348;SDS011;10332;50.208;18.988;2024-01-30T00:32:00;60.97;;;29.52;;
20348;SDS011;10332;50.208;18.988;2024-01-30T00:34:28;52.72;;;27.90;;
20348;SDS011;10332;50.208;18.988;2024-01-30T00:36:55;54.78;;;26.80;;
20348;SDS011;10332;50.208;18.988;2024-01-30T00:39:23;51.88;;;26.45;;
20348;SDS011;10332;50.208;18.988;2024-01-30T00:41:51;53.83;;;26.73;;
20348;SDS011;10332;50.208;18.988;2024-01-30T00:44:18;45.72;;;24.15;;
20348;SDS011;10332;50.208;18.988;2024-01-30T00:46:46;46.60;;;24.05;;
20348;SDS011;10332;50.208;18.988;2024-01-30T00:49:14;46.63;;;22.27;;
20348;SDS011;10332;50.208;18.988;2024-01-30T00:51:42;43.22;;;21.58;;
20348;SDS011;10332;50.208;18.988;2024-01-30T00:54:09;41.67;;;21.55;;
20348;SDS011;10332;50.208;18.988;2024-01-30T00:56:37;37.95;;;20.13;;
20348;SDS011;10332;50.208;18.988;2024-01-30T00:59:04;39.80;;;20.02;;
20348;SDS011;10332;50.208;18.988;2024-01-30T01:01:33;41.70;;;20.92;;
20348;SDS011;10332;50.208;18.988;2024-01-30T01:04:00;34.97;;;18.98;;
20348;SDS011;10332;50.208;18.988;2024-01-30T01:06:28;38.22;;;19.63;;
20348;SDS011;10332;50.208;18.988;2024-01-30T01:08:55;34.65;;;18.45;;
20348;SDS011;10332;50.208;18.988;2024-01-30T01:11:22;35.90;;;18.77;;
20348;SDS011;10332;50.208;18.988;2024-01-30T01:13:50;31.23;;;17.88;;
20348;SDS011;10332;50.208;18.988;2024-01-30T01:16:17;34.72;;;18.30;;
20348;SDS011;10332;50.208;18.988;2024-01-30T01:18:45;34.92;;;18.50;;
20348;SDS011;10332;50.208;18.988;2024-01-30T01:21:12;36.85;;;17.92;;
20348;SDS011;10332;50.208;18.988;2024-01-30T01:23:39;36.30;;;17.17;;
20348;SDS011;10332;50.208;18.988;2024-01-30T01:26:07;38.00;;;18.08;;
20348;SDS011;10332;50.208;18.988;2024-01-30T01:28:36;35.85;;;17.77;;
20348;SDS011;10332;50.208;18.988;2024-01-30T01:31:04;33.15;;;16.73;;
20348;SDS011;10332;50.208;18.988;2024-01-30T01:33:32;31.10;;;16.10;;
20348;SDS011;10332;50.208;18.988;2024-01-30T01:36:00;34.43;;;17.30;;
20348;SDS011;10332;50.208;18.988;2024-01-30T01:38:30;33.83;;;16.77;;
20348;SDS011;10332;50.208;18.988;2024-01-30T01:40:57;35.97;;;17.25;;
20348;SDS011;10332;50.208;18.988;2024-01-30T01:43:25;31.92;;;16.33;;
20348;SDS011;10332;50.208;18.988;2024-01-30T01:45:52;36.25;;;17.05;;
20348;SDS011;10332;50.208;18.988;2024-01-30T01:48:19;27.98;;;16.17;;
20348;SDS011;10332;50.208;18.988;2024-01-30T01:50:47;34.35;;;18.15;;
20348;SDS011;10332;50.208;18.988;2024-01-30T01:53:15;34.03;;;17.77;;
20348;SDS011;10332;50.208;18.988;2024-01-30T01:55:45;29.45;;;16.77;;
20348;SDS011;10332;50.208;18.988;2024-01-30T01:58:12;33.50;;;16.23;;
20348;SDS011;10332;50.208;18.988;2024-01-30T02:00:40;30.00;;;16.60;;
20348;SDS011;10332;50.208;18.988;2024-01-30T02:03:10;31.63;;;16.80;;
20348;SDS011;10332;50.208;18.988;2024-01-30T02:05:39;38.97;;;19.17;;
20348;SDS011;10332;50.208;18.988;2024-01-30T02:08:07;37.05;;;19.23;;
20348;SDS011;10332;50.208;18.988;2024-01-30T02:10:35;37.75;;;19.58;;
20348;SDS011;10332;50.208;18.988;2024-01-30T02:13:03;37.83;;;19.65;;
20348;SDS011;10332;50.208;18.988;2024-01-30T02:15:31;41.55;;;20.92;;
20348;SDS011;10332;50.208;18.988;2024-01-30T02:17:58;35.05;;;18.80;;
20348;SDS011;10332;50.208;18.988;2024-01-30T02:20:26;41.03;;;19.45;;
20348;SDS011;10332;50.208;18.988;2024-01-30T02:22:56;37.47;;;18.48;;
20348;SDS011;10332;50.208;18.988;2024-01-30T02:25:32;34.30;;;18.73;;
20348;SDS011;10332;50.208;18.988;2024-01-30T02:28:02;35.55;;;17.42;;
20348;SDS011;10332;50.208;18.988;2024-01-30T02:30:29;36.97;;;17.93;;
20348;SDS011;10332;50.208;18.988;2024-01-30T02:32:57;33.42;;;17.58;;
20348;SDS011;10332;50.208;18.988;2024-01-30T02:35:24;36.30;;;18.33;;
20348;SDS011;10332;50.208;18.988;2024-01-30T02:37:51;33.47;;;17.48;;
20348;SDS011;10332;50.208;18.988;2024-01-30T02:40:19;31.23;;;15.25;;
20348;SDS011;10332;50.208;18.988;2024-01-30T02:42:46;32.38;;;16.10;;
20348;SDS011;10332;50.208;18.988;2024-01-30T02:45:14;31.70;;;14.73;;
20348;SDS011;10332;50.208;18.988;2024-01-30T02:47:41;29.40;;;15.37;;
20348;SDS011;10332;50.208;18.988;2024-01-30T02:50:09;27.17;;;14.40;;
20348;SDS011;10332;50.208;18.988;2024-01-30T02:52:36;32.63;;;16.50;;
20348;SDS011;10332;50.208;18.988;2024-01-30T02:55:04;30.08;;;14.82;;
20348;SDS011;10332;50.208;18.988;2024-01-30T02:57:32;29.52;;;15.05;;
20348;SDS011;10332;50.208;18.988;2024-01-30T02:59:59;25.27;;;14.80;;
20348;SDS011;10332;50.208;18.988;2024-01-30T03:02:27;31.27;;;16.95;;
20348;SDS011;10332;50.208;18.988;2024-01-30T03:04:55;29.80;;;16.05;;
20348;SDS011;10332;50.208;18.988;2024-01-30T03:07:22;34.65;;;18.25;;
20348;SDS011;10332;50.208;18.988;2024-01-30T03:09:49;33.03;;;17.70;;
20348;SDS011;10332;50.208;18.988;2024-01-30T03:12:17;38.65;;;19.15;;
20348;SDS011;10332;50.208;18.988;2024-01-30T03:14:44;36.33;;;18.50;;
20348;SDS011;10332;50.208;18.988;2024-01-30T03:17:11;35.13;;;18.73;;
20348;SDS011;10332;50.208;18.988;2024-01-30T03:19:39;32.92;;;17.75;;
20348;SDS011;10332;50.208;18.988;2024-01-30T03:22:06;32.50;;;18.33;;
20348;SDS011;10332;50.208;18.988;2024-01-30T03:24:34;38.15;;;17.55;;
20348;SDS011;10332;50.208;18.988;2024-01-30T03:27:01;31.23;;;16.17;;
20348;SDS011;10332;50.208;18.988;2024-01-30T03:29:29;28.77;;;15.23;;
20348;SDS011;10332;50.208;18.988;2024-01-30T03:31:56;25.33;;;14.27;;
20348;SDS011;10332;50.208;18.988;2024-01-30T03:34:23;30.80;;;15.00;;
20348;SDS011;10332;50.208;18.988;2024-01-30T03:36:51;25.30;;;13.57;;
20348;SDS011;10332;50.208;18.988;2024-01-30T03:39:18;27.00;;;13.85;;
20348;SDS011;10332;50.208;18.988;2024-01-30T03:41:45;27.13;;;13.93;;
20348;SDS011;10332;50.208;18.988;2024-01-30T03:44:13;24.97;;;13.70;;
20348;SDS011;10332;50.208;18.988;2024-01-30T03:46:40;25.35;;;13.60;;
20348;SDS011;10332;50.208;18.988;2024-01-30T03:49:07;25.25;;;13.73;;
20348;SDS011;10332;50.208;18.988;2024-01-30T03:51:36;23.73;;;12.30;;
20348;SDS011;10332;50.208;18.988;2024-01-30T03:54:03;24.92;;;12.50;;
20348;SDS011;10332;50.208;18.988;2024-01-30T03:56:30;22.33;;;12.02;;
20348;SDS011;10332;50.208;18.988;2024-01-30T03:58:58;20.40;;;11.85;;
20348;SDS011;10332;50.208;18.988;2024-01-30T04:01:27;21.73;;;11.27;;
20348;SDS011;10332;50.208;18.988;2024-01-30T04:03:54;21.75;;;11.25;;
20348;SDS011;10332;50.208;18.988;2024-01-30T04:06:21;21.85;;;11.48;;
20348;SDS011;10332;50.208;18.988;2024-01-30T04:08:49;27.02;;;13.43;;
20348;SDS011;10332;50.208;18.988;2024-01-30T04:11:18;27.43;;;13.87;;
20348;SDS011;10332;50.208;18.988;2024-01-30T04:13:46;24.93;;;13.07;;
20348;SDS011;10332;50.208;18.988;2024-01-30T04:16:21;26.70;;;12.93;;
20348;SDS011;10332;50.208;18.988;2024-01-30T04:18:50;30.90;;;14.77;;
20348;SDS011;10332;50.208;18.988;2024-01-30T04:21:18;28.57;;;14.67;;
20348;SDS011;10332;50.208;18.988;2024-01-30T04:23:47;33.90;;;16.23;;
20348;SDS011;10332;50.208;18.988;2024-01-30T04:26:15;31.52;;;15.70;;
20348;SDS011;10332;50.208;18.988;2024-01-30T04:28:43;37.58;;;17.20;;
20348;SDS011;10332;50.208;18.988;2024-01-30T04:31:11;32.25;;;15.82;;
20348;SDS011;10332;50.208;18.988;2024-01-30T04:33:39;32.17;;;16.40;;
20348;SDS011;10332;50.208;18.988;2024-01-30T04:36:08;32.80;;;17.02;;
20348;SDS011;10332;50.208;18.988;2024-01-30T04:38:38;36.00;;;16.38;;
20348;SDS011;10332;50.208;18.988;2024-01-30T04:41:06;31.70;;;16.10;;
20348;SDS011;10332;50.208;18.988;2024-01-30T04:43:34;29.33;;;15.18;;
20348;SDS011;10332;50.208;18.988;2024-01-30T04:46:01;34.05;;;17.10;;
20348;SDS011;10332;50.208;18.988;2024-01-30T04:48:29;34.95;;;16.98;;
20348;SDS011;10332;50.208;18.988;2024-01-30T04:50:56;29.83;;;16.08;;
20348;SDS011;10332;50.208;18.988;2024-01-30T04:53:23;34.42;;;16.88;;
20348;SDS011;10332;50.208;18.988;2024-01-30T04:55:51;32.35;;;16.85;;
20348;SDS011;10332;50.208;18.988;2024-01-30T04:58:18;28.42;;;15.35;;
20348;SDS011;10332;50.208;18.988;2024-01-30T05:00:45;29.83;;;16.00;;
20348;SDS011;10332;50.208;18.988;2024-01-30T05:03:21;37.55;;;18.55;;
20348;SDS011;10332;50.208;18.988;2024-01-30T05:05:50;35.05;;;17.95;;
20348;SDS011;10332;50.208;18.988;2024-01-30T05:08:17;31.20;;;15.60;;
20348;SDS011;10332;50.208;18.988;2024-01-30T05:10:45;32.27;;;16.53;;
20348;SDS011;10332;50.208;18.988;2024-01-30T05:13:13;32.30;;;15.60;;
20348;SDS011;10332;50.208;18.988;2024-01-30T05:15:40;28.83;;;14.87;;
20348;SDS011;10332;50.208;18.988;2024-01-30T05:18:08;27.35;;;14.95;;
20348;SDS011;10332;50.208;18.988;2024-01-30T05:20:35;31.00;;;15.07;;
20348;SDS011;10332;50.208;18.988;2024-01-30T05:23:03;29.40;;;14.50;;
20348;SDS011;10332;50.208;18.988;2024-01-30T05:25:30;33.00;;;16.10;;
20348;SDS011;10332;50.208;18.988;2024-01-30T05:27:58;27.45;;;14.73;;
20348;SDS011;10332;50.208;18.988;2024-01-30T05:30:25;31.45;;;15.95;;
20348;SDS011;10332;50.208;18.988;2024-01-30T05:32:52;34.50;;;16.50;;
20348;SDS011;10332;50.208;18.988;2024-01-30T05:35:20;32.58;;;16.58;;
20348;SDS011;10332;50.208;18.988;2024-01-30T05:37:48;31.30;;;16.10;;
20348;SDS011;10332;50.208;18.988;2024-01-30T05:40:16;27.58;;;14.18;;
20348;SDS011;10332;50.208;18.988;2024-01-30T05:42:44;29.15;;;14.95;;
20348;SDS011;10332;50.208;18.988;2024-01-30T05:45:11;35.58;;;14.95;;
20348;SDS011;10332;50.208;18.988;2024-01-30T05:47:39;27.13;;;15.35;;
20348;SDS011;10332;50.208;18.988;2024-01-30T05:50:06;32.57;;;16.63;;
20348;SDS011;10332;50.208;18.988;2024-01-30T05:52:34;34.90;;;16.43;;
20348;SDS011;10332;50.208;18.988;2024-01-30T05:55:01;30.20;;;15.53;;
20348;SDS011;10332;50.208;18.988;2024-01-30T05:57:30;31.23;;;14.13;;
20348;SDS011;10332;50.208;18.988;2024-01-30T05:59:57;26.90;;;13.88;;
20348;SDS011;10332;50.208;18.988;2024-01-30T06:02:25;32.85;;;14.35;;
20348;SDS011;10332;50.208;18.988;2024-01-30T06:04:52;36.70;;;16.38;;
20348;SDS011;10332;50.208;18.988;2024-01-30T06:07:19;33.77;;;16.23;;
20348;SDS011;10332;50.208;18.988;2024-01-30T06:09:47;32.27;;;15.30;;
20348;SDS011;10332;50.208;18.988;2024-01-30T06:12:15;28.57;;;14.13;;
20348;SDS011;10332;50.208;18.988;2024-01-30T06:14:42;25.38;;;13.60;;
20348;SDS011;10332;50.208;18.988;2024-01-30T06:17:13;27.93;;;14.33;;
20348;SDS011;10332;50.208;18.988;2024-01-30T06:19:40;26.77;;;14.53;;
20348;SDS011;10332;50.208;18.988;2024-01-30T06:22:08;25.67;;;12.65;;
20348;SDS011;10332;50.208;18.988;2024-01-30T06:24:35;29.85;;;13.52;;
20348;SDS011;10332;50.208;18.988;2024-01-30T06:27:03;27.23;;;13.75;;
20348;SDS011;10332;50.208;18.988;2024-01-30T06:29:30;25.03;;;12.60;;
20348;SDS011;10332;50.208;18.988;2024-01-30T06:31:58;28.63;;;13.77;;
20348;SDS011;10332;50.208;18.988;2024-01-30T06:34:25;32.63;;;14.82;;
20348;SDS011;10332;50.208;18.988;2024-01-30T06:36:53;35.03;;;15.70;;
20348;SDS011;10332;50.208;18.988;2024-01-30T06:39:20;40.53;;;15.52;;
20348;SDS011;10332;50.208;18.988;2024-01-30T06:41:48;40.35;;;16.17;;
20348;SDS011;10332;50.208;18.988;2024-01-30T06:44:17;40.60;;;16.77;;
20348;SDS011;10332;50.208;18.988;2024-01-30T06:46:44;37.78;;;16.45;;
20348;SDS011;10332;50.208;18.988;2024-01-30T06:49:11;40.08;;;15.93;;
20348;SDS011;10332;50.208;18.988;2024-01-30T06:51:39;38.03;;;16.13;;
20348;SDS011;10332;50.208;18.988;2024-01-30T06:54:06;31.23;;;15.82;;
20348;SDS011;10332;50.208;18.988;2024-01-30T06:56:34;40.75;;;16.98;;
20348;SDS011;10332;50.208;18.988;2024-01-30T06:59:02;30.87;;;14.67;;
20348;SDS011;10332;50.208;18.988;2024-01-30T07:01:29;31.58;;;14.32;;
20348;SDS011;10332;50.208;18.988;2024-01-30T07:03:57;34.08;;;15.20;;
20348;SDS011;10332;50.208;18.988;2024-01-30T07:06:25;35.23;;;14.63;;
20348;SDS011;10332;50.208;18.988;2024-01-30T07:08:52;30.65;;;15.43;;
20348;SDS011;10332;50.208;18.988;2024-01-30T07:11:20;34.17;;;16.40;;
20348;SDS011;10332;50.208;18.988;2024-01-30T07:13:49;36.08;;;17.42;;
20348;SDS011;10332;50.208;18.988;2024-01-30T07:16:17;42.50;;;19.02;;
20348;SDS011;10332;50.208;18.988;2024-01-30T07:18:45;46.20;;;19.73;;
20348;SDS011;10332;50.208;18.988;2024-01-30T07:21:13;39.38;;;19.65;;
20348;SDS011;10332;50.208;18.988;2024-01-30T07:23:40;36.30;;;18.20;;
20348;SDS011;10332;50.208;18.988;2024-01-30T07:26:08;40.72;;;19.80;;
20348;SDS011;10332;50.208;18.988;2024-01-30T07:28:36;39.70;;;19.63;;
20348;SDS011;10332;50.208;18.988;2024-01-30T07:31:04;38.58;;;19.58;;
20348;SDS011;10332;50.208;18.988;2024-01-30T07:33:33;39.63;;;19.67;;
20348;SDS011;10332;50.208;18.988;2024-01-30T07:36:00;37.65;;;20.33;;
20348;SDS011;10332;50.208;18.988;2024-01-30T07:38:28;39.90;;;19.50;;
20348;SDS011;10332;50.208;18.988;2024-01-30T07:40:58;36.22;;;18.27;;
20348;SDS011;10332;50.208;18.988;2024-01-30T07:43:25;34.60;;;18.27;;
20348;SDS011;10332;50.208;18.988;2024-01-30T07:45:53;35.30;;;18.65;;
20348;SDS011;10332;50.208;18.988;2024-01-30T07:48:22;41.50;;;18.45;;
20348;SDS011;10332;50.208;18.988;2024-01-30T07:50:50;32.22;;;16.75;;
20348;SDS011;10332;50.208;18.988;2024-01-30T07:53:17;32.35;;;17.23;;
20348;SDS011;10332;50.208;18.988;2024-01-30T07:55:45;34.67;;;17.43;;
20348;SDS011;10332;50.208;18.988;2024-01-30T07:58:13;34.00;;;16.15;;
20348;SDS011;10332;50.208;18.988;2024-01-30T08:00:41;30.00;;;15.73;;
20348;SDS011;10332;50.208;18.988;2024-01-30T08:03:08;32.13;;;16.48;;
20348;SDS011;10332;50.208;18.988;2024-01-30T08:05:35;36.10;;;16.60;;
20348;SDS011;10332;50.208;18.988;2024-01-30T08:08:03;28.77;;;15.00;;
20348;SDS011;10332;50.208;18.988;2024-01-30T08:10:30;29.65;;;14.50;;
20348;SDS011;10332;50.208;18.988;2024-01-30T08:12:58;33.30;;;15.20;;
20348;SDS011;10332;50.208;18.988;2024-01-30T08:15:25;29.98;;;15.25;;
20348;SDS011;10332;50.208;18.988;2024-01-30T08:17:52;32.58;;;14.85;;
20348;SDS011;10332;50.208;18.988;2024-01-30T08:20:25;33.50;;;14.23;;
20348;SDS011;10332;50.208;18.988;2024-01-30T08:22:52;29.52;;;13.48;;
20348;SDS011;10332;50.208;18.988;2024-01-30T08:25:20;33.13;;;14.93;;
20348;SDS011;10332;50.208;18.988;2024-01-30T08:27:48;29.27;;;14.33;;
20348;SDS011;10332;50.208;18.988;2024-01-30T08:30:16;31.35;;;14.25;;
20348;SDS011;10332;50.208;18.988;2024-01-30T08:32:43;26.83;;;13.55;;
20348;SDS011;10332;50.208;18.988;2024-01-30T08:35:11;27.42;;;12.82;;
20348;SDS011;10332;50.208;18.988;2024-01-30T08:37:40;25.05;;;12.55;;
20348;SDS011;10332;50.208;18.988;2024-01-30T08:40:08;27.65;;;13.05;;
20348;SDS011;10332;50.208;18.988;2024-01-30T08:42:35;24.65;;;12.48;;
20348;SDS011;10332;50.208;18.988;2024-01-30T08:45:03;22.15;;;11.07;;
20348;SDS011;10332;50.208;18.988;2024-01-30T08:47:31;19.92;;;10.80;;
20348;SDS011;10332;50.208;18.988;2024-01-30T08:50:00;23.65;;;11.25;;
20348;SDS011;10332;50.208;18.988;2024-01-30T08:52:28;24.17;;;11.35;;
20348;SDS011;10332;50.208;18.988;2024-01-30T08:54:55;25.17;;;12.90;;
20348;SDS011;10332;50.208;18.988;2024-01-30T08:57:22;23.33;;;12.70;;
20348;SDS011;10332;50.208;18.988;2024-01-30T08:59:50;21.80;;;12.43;;
20348;SDS011;10332;50.208;18.988;2024-01-30T09:02:17;22.85;;;11.73;;
20348;SDS011;10332;50.208;18.988;2024-01-30T09:04:45;22.70;;;11.10;;
20348;SDS011;10332;50.208;18.988;2024-01-30T09:07:13;19.95;;;11.05;;
20348;SDS011;10332;50.208;18.988;2024-01-30T09:09:40;17.63;;;10.60;;
20348;SDS011;10332;50.208;18.988;2024-01-30T09:12:08;17.80;;;10.45;;
20348;SDS011;10332;50.208;18.988;2024-01-30T09:14:39;18.30;;;10.90;;
20348;SDS011;10332;50.208;18.988;2024-01-30T09:17:07;15.65;;;10.60;;
20348;SDS011;10332;50.208;18.988;2024-01-30T09:19:35;16.75;;;10.15;;
20348;SDS011;10332;50.208;18.988;2024-01-30T09:22:03;18.10;;;11.05;;
20348;SDS011;10332;50.208;18.988;2024-01-30T09:24:31;17.95;;;11.30;;
20348;SDS011;10332;50.208;18.988;2024-01-30T09:26:58;18.45;;;11.30;;
20348;SDS011;10332;50.208;18.988;2024-01-30T09:29:26;15.98;;;10.15;;
20348;SDS011;10332;50.208;18.988;2024-01-30T09:31:53;19.17;;;11.50;;
20348;SDS011;10332;50.208;18.988;2024-01-30T09:34:21;17.73;;;11.05;;
20348;SDS011;10332;50.208;18.988;2024-01-30T09:36:48;20.73;;;11.68;;
20348;SDS011;10332;50.208;18.988;2024-01-30T09:39:16;17.73;;;11.10;;
20348;SDS011;10332;50.208;18.988;2024-01-30T09:41:51;14.82;;;10.52;;
20348;SDS011;10332;50.208;18.988;2024-01-30T09:44:29;14.35;;;10.38;;
20348;SDS011;10332;50.208;18.988;2024-01-30T09:46:57;16.55;;;10.57;;
20348;SDS011;10332;50.208;18.988;2024-01-30T09:49:33;14.45;;;9.77;;
20348;SDS011;10332;50.208;18.988;2024-01-30T09:52:02;13.20;;;9.60;;
20348;SDS011;10332;50.208;18.988;2024-01-30T09:54:30;14.23;;;9.55;;
20348;SDS011;10332;50.208;18.988;2024-01-30T09:57:02;13.65;;;8.77;;
20348;SDS011;10332;50.208;18.988;2024-01-30T09:59:31;14.23;;;10.18;;
20348;SDS011;10332;50.208;18.988;2024-01-30T10:02:00;12.45;;;8.35;;
20348;SDS011;10332;50.208;18.988;2024-01-30T10:04:28;15.82;;;9.38;;
20348;SDS011;10332;50.208;18.988;2024-01-30T10:06:55;13.25;;;8.60;;
20348;SDS011;10332;50.208;18.988;2024-01-30T10:09:25;12.40;;;8.73;;
20348;SDS011;10332;50.208;18.988;2024-01-30T10:11:53;15.82;;;9.98;;
20348;SDS011;10332;50.208;18.988;2024-01-30T10:14:20;11.95;;;8.73;;
20348;SDS011;10332;50.208;18.988;2024-01-30T10:16:48;15.75;;;9.60;;
20348;SDS011;10332;50.208;18.988;2024-01-30T10:19:15;15.48;;;9.40;;
20348;SDS011;10332;50.208;18.988;2024-01-30T10:21:42;14.57;;;9.40;;
20348;SDS011;10332;50.208;18.988;2024-01-30T10:24:10;12.38;;;8.93;;
20348;SDS011;10332;50.208;18.988;2024-01-30T10:26:39;12.35;;;8.57;;
20348;SDS011;10332;50.208;18.988;2024-01-30T10:29:07;13.18;;;8.90;;
20348;SDS011;10332;50.208;18.988;2024-01-30T10:31:34;13.23;;;9.15;;
20348;SDS011;10332;50.208;18.988;2024-01-30T10:34:02;10.07;;;8.05;;
20348;SDS011;10332;50.208;18.988;2024-01-30T10:36:42;12.55;;;8.93;;
20348;SDS011;10332;50.208;18.988;2024-01-30T10:39:17;10.55;;;7.63;;
20348;SDS011;10332;50.208;18.988;2024-01-30T10:41:44;9.25;;;6.93;;
20348;SDS011;10332;50.208;18.988;2024-01-30T10:44:16;10.23;;;7.20;;
20348;SDS011;10332;50.208;18.988;2024-01-30T10:46:50;10.02;;;7.35;;
20348;SDS011;10332;50.208;18.988;2024-01-30T10:49:23;9.13;;;7.00;;
20348;SDS011;10332;50.208;18.988;2024-01-30T10:51:51;8.48;;;6.63;;
20348;SDS011;10332;50.208;18.988;2024-01-30T10:54:20;8.90;;;6.78;;
20348;SDS011;10332;50.208;18.988;2024-01-30T10:56:48;10.15;;;7.00;;
20348;SDS011;10332;50.208;18.988;2024-01-30T10:59:17;8.32;;;6.70;;
20348;SDS011;10332;50.208;18.988;2024-01-30T11:01:45;9.32;;;7.30;;
20348;SDS011;10332;50.208;18.988;2024-01-30T11:04:13;9.35;;;7.32;;
20348;SDS011;10332;50.208;18.988;2024-01-30T11:06:41;8.85;;;7.28;;
20348;SDS011;10332;50.208;18.988;2024-01-30T11:09:10;11.13;;;7.78;;
20348;SDS011;10332;50.208;18.988;2024-01-30T11:11:52;9.88;;;7.88;;
20348;SDS011;10332;50.208;18.988;2024-01-30T11:14:29;10.50;;;7.88;;
20348;SDS011;10332;50.208;18.988;2024-01-30T11:16:57;11.23;;;7.65;;
20348;SDS011;10332;50.208;18.988;2024-01-30T11:19:26;8.70;;;6.78;;
20348;SDS011;10332;50.208;18.988;2024-01-30T11:21:54;9.93;;;7.47;;
20348;SDS011;10332;50.208;18.988;2024-01-30T11:24:24;9.73;;;7.07;;
20348;SDS011;10332;50.208;18.988;2024-01-30T11:26:59;10.45;;;8.52;;
20348;SDS011;10332;50.208;18.988;2024-01-30T11:29:28;9.02;;;7.07;;
20348;SDS011;10332;50.208;18.988;2024-01-30T11:31:58;9.05;;;7.00;;
20348;SDS011;10332;50.208;18.988;2024-01-30T11:34:26;9.05;;;7.38;;
20348;SDS011;10332;50.208;18.988;2024-01-30T11:36:57;11.80;;;7.78;;
20348;SDS011;10332;50.208;18.988;2024-01-30T11:39:27;10.13;;;7.72;;
20348;SDS011;10332;50.208;18.988;2024-01-30T11:41:56;10.07;;;7.57;;
20348;SDS011;10332;50.208;18.988;2024-01-30T11:44:25;9.88;;;7.50;;
20348;SDS011;10332;50.208;18.988;2024-01-30T11:46:52;10.65;;;8.00;;
20348;SDS011;10332;50.208;18.988;2024-01-30T11:49:20;9.65;;;7.75;;
20348;SDS011;10332;50.208;18.988;2024-01-30T11:51:47;8.57;;;6.88;;
20348;SDS011;10332;50.208;18.988;2024-01-30T11:54:16;9.45;;;7.32;;
20348;SDS011;10332;50.208;18.988;2024-01-30T11:56:43;10.35;;;7.40;;
20348;SDS011;10332;50.208;18.988;2024-01-30T11:59:11;9.13;;;7.43;;
20348;SDS011;10332;50.208;18.988;2024-01-30T12:01:38;12.90;;;9.18;;
20348;SDS011;10332;50.208;18.988;2024-01-30T12:04:06;10.18;;;7.60;;
20348;SDS011;10332;50.208;18.988;2024-01-30T12:06:37;11.65;;;8.90;;
20348;SDS011;10332;50.208;18.988;2024-01-30T12:09:06;10.65;;;9.02;;
20348;SDS011;10332;50.208;18.988;2024-01-30T12:11:47;10.32;;;8.48;;
20348;SDS011;10332;50.208;18.988;2024-01-30T12:14:16;11.40;;;8.63;;
20348;SDS011;10332;50.208;18.988;2024-01-30T12:16:48;9.82;;;8.10;;
20348;SDS011;10332;50.208;18.988;2024-01-30T12:19:24;11.32;;;8.65;;
20348;SDS011;10332;50.208;18.988;2024-01-30T12:21:55;10.60;;;8.10;;
20348;SDS011;10332;50.208;18.988;2024-01-30T12:24:26;10.88;;;7.68;;
20348;SDS011;10332;50.208;18.988;2024-01-30T12:26:58;10.57;;;8.18;;
20348;SDS011;10332;50.208;18.988;2024-01-30T12:29:26;9.98;;;8.23;;
20348;SDS011;10332;50.208;18.988;2024-01-30T12:32:00;13.90;;;9.65;;
20348;SDS011;10332;50.208;18.988;2024-01-30T12:34:28;12.98;;;10.20;;
20348;SDS011;10332;50.208;18.988;2024-01-30T12:36:57;11.20;;;8.68;;
20348;SDS011;10332;50.208;18.988;2024-01-30T12:39:25;10.73;;;8.30;;
20348;SDS011;10332;50.208;18.988;2024-01-30T12:41:52;10.93;;;8.18;;
20348;SDS011;10332;50.208;18.988;2024-01-30T12:44:20;10.85;;;8.40;;
20348;SDS011;10332;50.208;18.988;2024-01-30T12:46:47;12.75;;;9.13;;
20348;SDS011;10332;50.208;18.988;2024-01-30T12:49:15;10.45;;;8.32;;
20348;SDS011;10332;50.208;18.988;2024-01-30T12:51:43;9.88;;;8.38;;
20348;SDS011;10332;50.208;18.988;2024-01-30T12:54:12;12.52;;;8.70;;
20348;SDS011;10332;50.208;18.988;2024-01-30T12:56:40;10.45;;;8.80;;
20348;SDS011;10332;50.208;18.988;2024-01-30T12:59:07;10.90;;;8.73;;
20348;SDS011;10332;50.208;18.988;2024-01-30T13:01:35;12.48;;;9.20;;
20348;SDS011;10332;50.208;18.988;2024-01-30T13:04:02;12.05;;;8.65;;
20348;SDS011;10332;50.208;18.988;2024-01-30T13:06:30;12.55;;;8.70;;
20348;SDS011;10332;50.208;18.988;2024-01-30T13:08:57;12.30;;;9.32;;
20348;SDS011;10332;50.208;18.988;2024-01-30T13:11:25;11.82;;;9.20;;
20348;SDS011;10332;50.208;18.988;2024-01-30T13:13:52;11.25;;;8.77;;
20348;SDS011;10332;50.208;18.988;2024-01-30T13:16:20;11.30;;;9.20;;
20348;SDS011;10332;50.208;18.988;2024-01-30T13:18:47;10.73;;;8.43;;
20348;SDS011;10332;50.208;18.988;2024-01-30T13:21:15;11.52;;;8.95;;
20348;SDS011;10332;50.208;18.988;2024-01-30T13:23:42;12.07;;;8.55;;
20348;SDS011;10332;50.208;18.988;2024-01-30T13:26:10;11.15;;;8.48;;
20348;SDS011;10332;50.208;18.988;2024-01-30T13:28:37;10.35;;;7.90;;
20348;SDS011;10332;50.208;18.988;2024-01-30T13:31:05;11.77;;;8.38;;
20348;SDS011;10332;50.208;18.988;2024-01-30T13:33:33;10.95;;;8.05;;
20348;SDS011;10332;50.208;18.988;2024-01-30T13:36:01;11.02;;;7.75;;
20348;SDS011;10332;50.208;18.988;2024-01-30T13:38:28;11.50;;;7.68;;
20348;SDS011;10332;50.208;18.988;2024-01-30T13:40:56;10.50;;;8.00;;
20348;SDS011;10332;50.208;18.988;2024-01-30T13:43:24;11.27;;;7.63;;
20348;SDS011;10332;50.208;18.988;2024-01-30T13:45:52;12.13;;;8.40;;
20348;SDS011;10332;50.208;18.988;2024-01-30T13:48:20;13.20;;;8.63;;
20348;SDS011;10332;50.208;18.988;2024-01-30T13:50:48;11.23;;;8.18;;
20348;SDS011;10332;50.208;18.988;2024-01-30T13:53:16;13.68;;;9.50;;
20348;SDS011;10332;50.208;18.988;2024-01-30T13:55:44;14.23;;;10.07;;
20348;SDS011;10332;50.208;18.988;2024-01-30T13:58:12;13.10;;;9.55;;
20348;SDS011;10332;50.208;18.988;2024-01-30T14:00:39;12.18;;;9.57;;
20348;SDS011;10332;50.208;18.988;2024-01-30T14:03:07;15.90;;;10.63;;
20348;SDS011;10332;50.208;18.988;2024-01-30T14:05:35;14.30;;;10.48;;
20348;SDS011;10332;50.208;18.988;2024-01-30T14:08:02;14.60;;;9.90;;
20348;SDS011;10332;50.208;18.988;2024-01-30T14:10:30;14.95;;;10.73;;
20348;SDS011;10332;50.208;18.988;2024-01-30T14:12:58;13.35;;;10.30;;
20348;SDS011;10332;50.208;18.988;2024-01-30T14:15:25;16.65;;;11.07;;
20348;SDS011;10332;50.208;18.988;2024-01-30T14:17:55;18.65;;;12.18;;
20348;SDS011;10332;50.208;18.988;2024-01-30T14:20:24;17.77;;;11.90;;